Time;durP1;ratioP1;P1;durP2;ratioP2;P2;SDS_P1;SDS_P2;PMS_P1;PMS_P2;Temp;Humidity;BMP_temperature;BMP_pressure;BME280_temperature;BME280_humidity;BME280_pressure;Samples;Min_cycle;Max_cycle;Signal;HPM_P1;HPM_P2
2021/04/25 00:00:02;;;;;;;;;;;;;;;20.23;43.40;101921.38;2085480;28;4081;-72
2021/04/25 00:01:03;;;;;;;;;;;;;;;20.23;43.39;101922.22;2083986;28;3848;-72
2021/04/25 00:02:04;;;;;;;;;;;;;;;20.24;43.35;101923.06;2085658;28;4072;-72
2021/04/25 00:03:05;;;;;;;;;;;;;;;20.24;43.34;101920.22;2083756;28;3998;-72
2021/04/25 00:04:06;;;;;;;;;;;;;;;20.26;43.42;101929.25;2085231;28;3842;-72
2021/04/25 00:05:06;;;;;;;;;;;;;;;20.25;43.51;101919.06;2085478;28;3987;-72
2021/04/25 00:06:07;;;;;;;;;;;;;;;20.24;43.47;101917.38;2083496;28;3841;-72
2021/04/25 00:07:08;;;;;;;;;;;;;;;20.24;43.30;101923.91;2083839;28;3955;-72
2021/04/25 00:08:08;;;;;;;;;;;;;;;20.24;43.41;101914.53;2085397;28;5321;-72
2021/04/25 00:09:09;;;;;;;;;;;;;;;20.26;43.49;101917.88;2084953;28;4299;-71
2021/04/25 00:10:10;;;;;;;;;;;;;;;20.26;43.40;101915.03;2084485;28;3873;-72
2021/04/25 00:11:11;;;;;;;;;;;;;;;20.26;43.50;101915.03;2084419;28;3864;-71
2021/04/25 00:12:12;;;;;;;;;;;;;;;20.27;43.45;101922.41;2085346;28;4067;-72
2021/04/25 00:13:13;;;;;;;;;;;;;;;20.26;43.34;101917.88;2084825;28;3878;-72
2021/04/25 00:14:13;;;;;;;;;;;;;;;20.27;43.59;101910.22;2085504;28;4003;-70
2021/04/25 00:15:14;;;;;;;;;;;;;;;20.26;43.64;101917.88;2084648;28;3877;-71
2021/04/25 00:16:15;;;;;;;;;;;;;;;20.24;43.59;101915.38;2084540;28;3961;-70
2021/04/25 00:17:16;;;;;;;;;;;;;;;20.23;43.67;101915.69;2085096;28;4053;-70
2021/04/25 00:18:17;;;;;;;;;;;;;;;20.27;43.80;101916.75;2085053;28;4124;-70
2021/04/25 00:19:18;;;;;;;;;;;;;;;20.27;43.69;101913.91;2084288;28;3798;-71
2021/04/25 00:20:19;;;;;;;;;;;;;;;20.27;43.70;101911.06;2083741;28;3881;-70
2021/04/25 00:21:21;;;;;;;;;;;;;;;20.27;43.70;101913.91;2085071;28;3798;-70
2021/04/25 00:22:22;;;;;;;;;;;;;;;20.26;43.63;101909.34;2084932;28;4306;-70
2021/04/25 00:23:23;;;;;;;;;;;;;;;20.27;43.65;101899.69;2084720;28;3853;-71
2021/04/25 00:24:24;;;;;;;;;;;;;;;20.28;43.82;101909.03;2084695;28;4025;-70
2021/04/25 00:25:24;;;;;;;;;;;;;;;20.28;43.74;101907.03;2085045;28;5138;-70
2021/04/25 00:26:25;;;;;;;;;;;;;;;20.28;43.67;101907.03;2085431;28;4047;-71
2021/04/25 00:27:26;;;;;;;;;;;;;;;20.27;43.72;101908.22;2085554;28;3859;-70
2021/04/25 00:28:27;;;;;;;;;;;;;;;20.27;43.74;101908.22;2085680;28;3936;-72
2021/04/25 00:29:27;;;;;;;;;;;;;;;20.28;43.88;101909.03;2084976;28;4001;-71
2021/04/25 00:30:28;;;;;;;;;;;;;;;20.28;43.79;101907.03;2084998;28;3786;-72
2021/04/25 00:31:29;;;;;;;;;;;;;;;20.28;43.88;101909.88;2084274;28;3820;-72
2021/04/25 00:32:30;;;;;;;;;;;;;;;20.28;43.80;101907.03;2084190;28;3815;-72
2021/04/25 00:33:31;;;;;;;;;;;;;;;20.29;43.77;101910.72;2084325;28;3840;-73
2021/04/25 00:34:32;;;;;;;;;;;;;;;20.28;43.78;101900.53;2085680;28;3962;-72
2021/04/25 00:35:35;;;;;;;;;;;;;;;20.28;43.75;101915.56;2085588;28;3895;-72
2021/04/25 00:36:36;;;;;;;;;;;;;;;20.28;43.89;101907.03;2085696;28;3967;-71
2021/04/25 00:37:36;;;;;;;;;;;;;;;20.28;43.85;101907.03;2084140;28;3892;-72
2021/04/25 00:38:37;;;;;;;;;;;;;;;20.28;43.96;101909.88;2084885;28;3966;-72
2021/04/25 00:39:38;;;;;;;;;;;;;;;20.29;43.83;101907.88;2085142;28;3750;-72
2021/04/25 00:40:39;;;;;;;;;;;;;;;20.29;44.05;101905.91;2085437;28;4842;-72
2021/04/25 00:41:39;;;;;;;;;;;;;;;20.29;43.92;101908.75;2084827;28;4590;-72
2021/04/25 00:42:40;;;;;;;;;;;;;;;20.29;44.02;101899.34;2083751;28;5164;-72
2021/04/25 00:43:41;;;;;;;;;;;;;;;20.29;43.99;101899.34;2075615;28;3915;-72
2021/04/25 00:44:42;;;;;;;;;;;;;;;20.30;43.98;101903.88;2085576;28;3847;-72
2021/04/25 00:45:42;;;;;;;;;;;;;;;20.29;43.91;101899.34;2083429;28;4108;-71
2021/04/25 00:46:43;;;;;;;;;;;;;;;20.29;44.12;101897.38;2084745;28;4008;-71
2021/04/25 00:47:44;;;;;;;;;;;;;;;20.30;44.17;101893.34;2084704;28;3993;-72
2021/04/25 00:48:44;;;;;;;;;;;;;;;20.29;44.10;101891.69;2084967;28;4326;-72
2021/04/25 00:49:45;;;;;;;;;;;;;;;20.31;44.03;101895.03;2085134;28;3996;-72
2021/04/25 00:50:46;;;;;;;;;;;;;;;20.29;44.21;101894.53;2084415;28;3861;-71
2021/04/25 00:51:53;;;;;;;;;;;;;;;20.30;44.21;101901.88;2085133;28;4245;-72
2021/04/25 00:52:55;;;;;;;;;;;;;;;20.31;44.14;101894.19;2076181;28;4374;-71
2021/04/25 00:53:55;;;;;;;;;;;;;;;20.30;44.08;101889.69;2074434;28;3998;-71
2021/04/25 00:54:56;;;;;;;;;;;;;;;20.31;44.12;101897.03;2085401;28;4047;-72
2021/04/25 00:55:57;;;;;;;;;;;;;;;20.29;44.10;101897.38;2084521;28;3956;-71
2021/04/25 00:56:58;;;;;;;;;;;;;;;20.30;44.08;101890.50;2085178;28;3940;-72
2021/04/25 00:57:59;;;;;;;;;;;;;;;20.31;44.09;101885.66;2084990;28;4139;-72
2021/04/25 00:59:00;;;;;;;;;;;;;;;20.30;44.08;101889.69;2084164;28;3926;-72
2021/04/25 01:00:01;;;;;;;;;;;;;;;20.30;44.21;101890.50;2085343;28;4206;-71
2021/04/25 01:01:01;;;;;;;;;;;;;;;20.30;44.12;101892.53;2084466;28;4322;-71
2021/04/25 01:02:02;;;;;;;;;;;;;;;20.29;44.02;101890.81;2084504;28;4057;-72
2021/04/25 01:03:03;;;;;;;;;;;;;;;20.30;44.01;101884.81;2084979;28;4215;-72
2021/04/25 01:04:04;;;;;;;;;;;;;;;20.30;44.06;101892.53;2085767;28;3943;-72
2021/04/25 01:05:04;;;;;;;;;;;;;;;20.30;44.05;101889.69;2084137;28;3948;-69
2021/04/25 01:06:05;;;;;;;;;;;;;;;20.30;44.13;101896.19;2083848;28;4145;-70
2021/04/25 01:07:06;;;;;;;;;;;;;;;20.30;44.23;101890.50;2084835;28;4200;-70
2021/04/25 01:08:07;;;;;;;;;;;;;;;20.32;44.23;101898.69;2084468;28;3849;-70
2021/04/25 01:09:07;;;;;;;;;;;;;;;20.30;44.24;101893.34;2085076;28;3972;-70
2021/04/25 01:10:08;;;;;;;;;;;;;;;20.30;44.17;101889.69;2084834;28;4000;-70
2021/04/25 01:11:09;;;;;;;;;;;;;;;20.31;44.47;101882.81;2076333;28;3889;-69
2021/04/25 01:12:10;;;;;;;;;;;;;;;20.30;44.30;101890.50;2076468;28;4015;-71
2021/04/25 01:13:10;;;;;;;;;;;;;;;20.31;44.21;101891.34;2084178;28;4142;-71
2021/04/25 01:14:11;;;;;;;;;;;;;;;20.32;44.28;101884.50;2084252;28;4494;-70
2021/04/25 01:15:12;;;;;;;;;;;;;;;20.31;44.32;101885.66;2084997;28;3800;-71
2021/04/25 01:16:12;;;;;;;;;;;;;;;20.31;44.29;101879.97;2085902;28;3971;-71
2021/04/25 01:17:16;;;;;;;;;;;;;;;20.31;44.31;101875.13;2086170;28;3828;-70
2021/04/25 01:18:17;;;;;;;;;;;;;;;20.31;44.25;101889.34;2084651;28;4108;-70
2021/04/25 01:19:18;;;;;;;;;;;;;;;20.32;44.35;101888.19;2087565;28;3966;-71
2021/04/25 01:20:18;;;;;;;;;;;;;;;20.31;44.35;101883.66;2084747;28;3988;-70
2021/04/25 01:21:19;;;;;;;;;;;;;;;20.32;44.32;101885.34;2085864;28;4090;-71
2021/04/25 01:22:20;;;;;;;;;;;;;;;20.32;44.38;101884.50;2085997;28;4140;-70
2021/04/25 01:23:21;;;;;;;;;;;;;;;20.31;44.39;101886.50;2086919;28;4333;-70
2021/04/25 01:24:22;;;;;;;;;;;;;;;20.32;44.44;101882.50;2086255;28;4003;-70
2021/04/25 01:25:22;;;;;;;;;;;;;;;20.31;44.43;101895.03;2086035;28;4186;-70
2021/04/25 01:26:23;;;;;;;;;;;;;;;20.31;44.36;101895.03;2086600;28;4389;-70
2021/04/25 01:27:24;;;;;;;;;;;;;;;20.32;44.31;101884.50;2082938;28;3908;-71
2021/04/25 01:28:24;;;;;;;;;;;;;;;20.32;44.37;101884.50;2083243;28;3877;-71
2021/04/25 01:29:25;;;;;;;;;;;;;;;20.32;44.26;101884.50;2083638;28;3831;-71
2021/04/25 01:30:26;;;;;;;;;;;;;;;20.31;44.23;101883.66;2084664;28;3833;-70
2021/04/25 01:31:27;;;;;;;;;;;;;;;20.31;44.33;101882.81;2084128;28;4065;-70
2021/04/25 01:32:27;;;;;;;;;;;;;;;20.31;44.38;101880.81;2084207;28;3896;-71
2021/04/25 01:33:29;;;;;;;;;;;;;;;20.31;44.36;101882.81;2086510;28;3927;-70
2021/04/25 01:34:29;;;;;;;;;;;;;;;20.31;44.46;101883.66;2085707;28;3940;-71
2021/04/25 01:35:30;;;;;;;;;;;;;;;20.32;44.37;101884.50;2086359;28;4219;-70
2021/04/25 01:36:31;;;;;;;;;;;;;;;20.31;44.34;101880.81;2085201;28;4220;-70
2021/04/25 01:37:32;;;;;;;;;;;;;;;20.31;44.47;101880.81;2085255;28;3953;-71
2021/04/25 01:38:33;;;;;;;;;;;;;;;20.32;44.33;101882.50;2086018;28;4008;-71
2021/04/25 01:39:34;;;;;;;;;;;;;;;20.31;44.39;101880.81;2086362;28;4175;-71
2021/04/25 01:40:35;;;;;;;;;;;;;;;20.32;44.45;101873.13;2086016;28;3758;-71
2021/04/25 01:41:36;;;;;;;;;;;;;;;20.31;44.42;101882.81;2086523;28;4122;-69
2021/04/25 01:42:37;;;;;;;;;;;;;;;20.32;44.36;101884.50;2086007;28;3781;-70
2021/04/25 01:43:38;;;;;;;;;;;;;;;20.32;44.41;101878.81;2085186;28;4040;-69
2021/04/25 01:44:38;;;;;;;;;;;;;;;20.31;44.27;101877.97;2086437;28;3816;-70
2021/04/25 01:45:39;;;;;;;;;;;;;;;20.31;44.45;101883.66;2085310;28;3991;-72
2021/04/25 01:46:40;;;;;;;;;;;;;;;20.31;44.43;101886.50;2086365;28;3983;-70
2021/04/25 01:47:41;;;;;;;;;;;;;;;20.31;44.51;101883.66;2085069;28;3861;-71
2021/04/25 01:48:41;;;;;;;;;;;;;;;20.32;44.43;101885.34;2086046;28;4006;-70
2021/04/25 01:49:42;;;;;;;;;;;;;;;20.32;44.55;101882.50;2085724;28;4083;-70
2021/04/25 01:50:43;;;;;;;;;;;;;;;20.32;44.35;101882.50;2086203;28;4318;-71
2021/04/25 01:51:44;;;;;;;;;;;;;;;20.32;44.53;101881.66;2085537;28;3847;-71
2021/04/25 01:52:44;;;;;;;;;;;;;;;20.32;44.54;101884.50;2086860;28;3842;-72
2021/04/25 01:53:45;;;;;;;;;;;;;;;20.31;44.46;101883.66;2086099;28;5261;-71
2021/04/25 01:54:46;;;;;;;;;;;;;;;20.32;44.30;101879.66;2086095;28;3946;-71
2021/04/25 01:55:47;;;;;;;;;;;;;;;20.33;44.44;101880.50;2084494;28;3959;-71
2021/04/25 01:56:48;;;;;;;;;;;;;;;20.31;44.47;101888.50;2085950;28;3986;-71
2021/04/25 01:57:48;;;;;;;;;;;;;;;20.32;44.42;101884.50;2085315;28;3855;-70
2021/04/25 01:58:49;;;;;;;;;;;;;;;20.32;44.53;101878.81;2086509;28;3827;-71
2021/04/25 01:59:50;;;;;;;;;;;;;;;20.31;44.64;101883.66;2085916;28;4074;-71
2021/04/25 02:00:51;;;;;;;;;;;;;;;20.32;44.44;101882.50;2085807;28;3914;-71
2021/04/25 02:01:52;;;;;;;;;;;;;;;20.32;44.43;101878.81;2086201;28;4033;-71
2021/04/25 02:02:53;;;;;;;;;;;;;;;20.33;44.63;101887.03;2085857;28;4179;-71
2021/04/25 02:03:54;;;;;;;;;;;;;;;20.33;44.49;101883.34;2085569;28;4003;-69
2021/04/25 02:04:55;;;;;;;;;;;;;;;20.33;44.65;101880.50;2086180;28;3774;-71
2021/04/25 02:05:55;;;;;;;;;;;;;;;20.32;44.55;101885.34;2086704;28;3845;-71
2021/04/25 02:06:56;;;;;;;;;;;;;;;20.32;44.51;101890.16;2085862;28;3854;-71
2021/04/25 02:07:57;;;;;;;;;;;;;;;20.32;44.53;101885.34;2085983;28;3875;-71
2021/04/25 02:08:58;;;;;;;;;;;;;;;20.32;44.50;101885.34;2085613;28;3897;-71
2021/04/25 02:09:58;;;;;;;;;;;;;;;20.33;44.64;101886.19;2085651;28;4080;-71
2021/04/25 02:10:59;;;;;;;;;;;;;;;20.33;44.61;101874.81;2085731;28;5205;-71
2021/04/25 02:12:00;;;;;;;;;;;;;;;20.32;44.66;101873.97;2086062;28;3859;-71
2021/04/25 02:13:01;;;;;;;;;;;;;;;20.32;44.59;101875.97;2085017;28;4105;-71
2021/04/25 02:14:02;;;;;;;;;;;;;;;20.33;44.54;101877.66;2086182;28;3902;-71
2021/04/25 02:15:02;;;;;;;;;;;;;;;20.33;44.50;101869.97;2086476;28;4296;-71
2021/04/25 02:16:03;;;;;;;;;;;;;;;20.34;44.64;101867.97;2085588;28;3850;-71
2021/04/25 02:17:04;;;;;;;;;;;;;;;20.33;44.66;101875.66;2086408;28;4058;-70
2021/04/25 02:18:05;;;;;;;;;;;;;;;20.33;44.71;101871.97;2085367;28;3868;-71
2021/04/25 02:19:05;;;;;;;;;;;;;;;20.32;44.65;101865.47;2086383;28;3866;-71
2021/04/25 02:20:06;;;;;;;;;;;;;;;20.32;44.63;101871.16;2084970;28;4008;-70
2021/04/25 02:21:07;;;;;;;;;;;;;;;20.32;44.79;101871.16;2085962;28;3841;-71
2021/04/25 02:22:08;;;;;;;;;;;;;;;20.32;44.67;101873.97;2086736;28;3819;-70
2021/04/25 02:23:09;;;;;;;;;;;;;;;20.33;44.65;101869.13;2085022;28;3846;-70
2021/04/25 02:24:10;;;;;;;;;;;;;;;20.32;44.74;101873.97;2085418;28;4068;-70
2021/04/25 02:25:10;;;;;;;;;;;;;;;20.32;44.62;101873.97;2085805;28;4038;-70
2021/04/25 02:26:11;;;;;;;;;;;;;;;20.33;44.88;101869.97;2085726;28;4007;-70
2021/04/25 02:27:12;;;;;;;;;;;;;;;20.32;44.83;101873.97;2086092;28;4150;-70
2021/04/25 02:28:12;;;;;;;;;;;;;;;20.32;44.76;101873.97;2084458;28;3869;-70
2021/04/25 02:29:13;;;;;;;;;;;;;;;20.33;44.87;101866.28;2069928;28;4088;-70
2021/04/25 02:30:14;;;;;;;;;;;;;;;20.32;44.85;101868.31;2069577;28;3850;-70
2021/04/25 02:31:15;;;;;;;;;;;;;;;20.33;44.77;101871.97;2085922;28;3972;-70
2021/04/25 02:32:15;;;;;;;;;;;;;;;20.32;44.83;101868.31;2086197;28;3864;-69
2021/04/25 02:33:16;;;;;;;;;;;;;;;20.32;44.68;101868.31;2084325;28;3862;-71
2021/04/25 02:34:17;;;;;;;;;;;;;;;20.33;44.75;101872.81;2085917;28;3946;-71
2021/04/25 02:35:18;;;;;;;;;;;;;;;20.33;44.69;101874.81;2085360;28;3911;-70
2021/04/25 02:36:18;;;;;;;;;;;;;;;20.31;44.79;101869.44;2085957;28;3831;-70
2021/04/25 02:37:19;;;;;;;;;;;;;;;20.31;44.76;101869.44;2083892;28;3829;-70
2021/04/25 02:38:20;;;;;;;;;;;;;;;20.32;44.79;101870.28;2084811;28;4041;-71
2021/04/25 02:39:20;;;;;;;;;;;;;;;20.32;44.63;101865.47;2085453;28;3858;-71
2021/04/25 02:40:21;;;;;;;;;;;;;;;20.31;44.68;101860.91;2086241;28;3808;-71
2021/04/25 02:41:22;;;;;;;;;;;;;;;20.32;44.68;101861.75;2086133;28;3920;-71
2021/04/25 02:42:23;;;;;;;;;;;;;;;20.31;44.73;101862.94;2085388;28;4027;-70
2021/04/25 02:43:24;;;;;;;;;;;;;;;20.32;44.74;101868.31;2085112;28;3840;-71
2021/04/25 02:44:24;;;;;;;;;;;;;;;20.32;44.70;101858.91;2086488;28;3817;-70
2021/04/25 02:45:25;;;;;;;;;;;;;;;20.31;44.72;101860.91;2084207;28;3841;-70
2021/04/25 02:46:26;;;;;;;;;;;;;;;20.32;44.77;101867.44;2085231;28;3991;-70
2021/04/25 02:47:26;;;;;;;;;;;;;;;20.31;44.65;101858.06;2083414;28;3878;-72
2021/04/25 02:48:27;;;;;;;;;;;;;;;20.32;44.77;101862.63;2085350;28;3719;-72
2021/04/25 02:49:28;;;;;;;;;;;;;;;20.32;44.71;101864.59;2085731;28;3838;-71
2021/04/25 02:50:29;;;;;;;;;;;;;;;20.32;44.78;101864.59;2084797;28;3847;-72
2021/04/25 02:51:30;;;;;;;;;;;;;;;20.32;44.71;101865.47;2085824;28;3825;-71
2021/04/25 02:52:31;;;;;;;;;;;;;;;20.32;44.75;101858.91;2084774;28;3828;-72
2021/04/25 02:53:32;;;;;;;;;;;;;;;20.32;44.83;101856.06;2085732;28;3817;-71
2021/04/25 02:54:33;;;;;;;;;;;;;;;20.31;44.72;101860.91;2084903;28;3980;-71
2021/04/25 02:55:34;;;;;;;;;;;;;;;20.31;44.72;101860.91;2086311;28;3984;-72
2021/04/25 02:56:35;;;;;;;;;;;;;;;20.32;44.86;101856.06;2084791;28;3852;-71
2021/04/25 02:57:36;;;;;;;;;;;;;;;20.33;44.73;101863.44;2085286;28;5039;-71
2021/04/25 02:58:37;;;;;;;;;;;;;;;20.31;44.72;101858.06;2085785;28;3941;-72
2021/04/25 02:59:37;;;;;;;;;;;;;;;20.31;44.92;101848.72;2085749;28;4059;-71
2021/04/25 03:00:38;;;;;;;;;;;;;;;20.33;44.74;101854.94;2086307;28;3836;-72
2021/04/25 03:01:39;;;;;;;;;;;;;;;20.32;44.72;101851.25;2085148;28;4028;-74
2021/04/25 03:02:40;;;;;;;;;;;;;;;20.32;44.69;101851.25;2085872;28;3845;-72
2021/04/25 03:03:41;;;;;;;;;;;;;;;20.31;44.83;101852.41;2086076;28;4014;-72
2021/04/25 03:04:41;;;;;;;;;;;;;;;20.32;44.83;101853.22;2085443;28;3849;-71
2021/04/25 03:05:42;;;;;;;;;;;;;;;20.31;44.80;101855.22;2085680;28;3854;-72
2021/04/25 03:06:43;;;;;;;;;;;;;;;20.32;44.94;101854.09;2086001;28;3759;-72
2021/04/25 03:07:43;;;;;;;;;;;;;;;20.31;44.78;101851.56;2085670;28;4032;-72
2021/04/25 03:08:44;;;;;;;;;;;;;;;20.32;44.87;101851.25;2085775;28;3950;-72
2021/04/25 03:09:45;;;;;;;;;;;;;;;20.32;44.92;101856.94;2085310;28;4936;-72
2021/04/25 03:10:46;;;;;;;;;;;;;;;20.31;44.88;101858.06;2085405;28;3756;-72
2021/04/25 03:11:46;;;;;;;;;;;;;;;20.33;44.86;101857.78;2086008;28;4190;-72
2021/04/25 03:12:47;;;;;;;;;;;;;;;20.31;44.89;101855.22;2085503;28;3846;-72
2021/04/25 03:13:48;;;;;;;;;;;;;;;20.32;44.85;101856.94;2086070;28;3887;-72
2021/04/25 03:14:49;;;;;;;;;;;;;;;20.32;44.94;101859.78;2085297;28;4067;-72
2021/04/25 03:15:50;;;;;;;;;;;;;;;20.32;44.95;101864.59;2085371;28;4096;-72
2021/04/25 03:16:51;;;;;;;;;;;;;;;20.32;44.88;101854.09;2084900;28;3858;-73
2021/04/25 03:17:51;;;;;;;;;;;;;;;20.32;44.80;101856.94;2085699;28;3829;-72
2021/04/25 03:18:52;;;;;;;;;;;;;;;20.31;44.91;101852.41;2085931;28;3882;-71
2021/04/25 03:19:53;;;;;;;;;;;;;;;20.31;44.92;101854.41;2085623;28;3878;-71
2021/04/25 03:20:54;;;;;;;;;;;;;;;20.33;44.99;101854.94;2085235;28;4048;-70
2021/04/25 03:21:55;;;;;;;;;;;;;;;20.32;44.88;101856.94;2084835;28;3851;-69
2021/04/25 03:22:56;;;;;;;;;;;;;;;20.32;44.98;101853.22;2085170;28;3856;-70
2021/04/25 03:23:56;;;;;;;;;;;;;;;20.33;44.93;101854.94;2085216;28;4067;-70
2021/04/25 03:24:57;;;;;;;;;;;;;;;20.31;44.92;101855.22;2084415;28;3990;-70
2021/04/25 03:25:58;;;;;;;;;;;;;;;20.32;45.00;101854.09;2085583;28;5058;-70
2021/04/25 03:27:01;;;;;;;;;;;;;;;20.32;44.91;101851.25;2085202;28;3988;-71
2021/04/25 03:28:02;;;;;;;;;;;;;;;20.32;45.06;101850.38;2083661;28;4077;-70
2021/04/25 03:29:03;;;;;;;;;;;;;;;20.32;44.96;101856.94;2084541;28;4001;-69
2021/04/25 03:30:04;;;;;;;;;;;;;;;20.32;44.88;101856.06;2084955;28;3860;-70
2021/04/25 03:31:04;;;;;;;;;;;;;;;20.32;44.98;101850.38;2085289;28;3948;-70
2021/04/25 03:32:05;;;;;;;;;;;;;;;20.31;44.93;101858.06;2085480;28;4043;-69
2021/04/25 03:33:06;;;;;;;;;;;;;;;20.31;44.98;101849.56;2084647;28;3982;-69
2021/04/25 03:34:07;;;;;;;;;;;;;;;20.32;44.94;101853.22;2085000;28;4059;-69
2021/04/25 03:35:07;;;;;;;;;;;;;;;20.32;45.00;101850.38;2075528;28;3996;-70
2021/04/25 03:36:08;;;;;;;;;;;;;;;20.30;44.95;101847.88;2076114;28;4013;-68
2021/04/25 03:37:09;;;;;;;;;;;;;;;20.30;44.95;101859.25;2084917;28;3844;-69
2021/04/25 03:38:10;;;;;;;;;;;;;;;20.30;45.03;101859.25;2084358;28;4103;-68
2021/04/25 03:39:11;;;;;;;;;;;;;;;20.30;45.05;101853.56;2082622;28;4054;-71
2021/04/25 03:40:12;;;;;;;;;;;;;;;20.30;45.11;101849.88;2084765;28;3876;-72
2021/04/25 03:41:13;;;;;;;;;;;;;;;20.31;45.05;101862.94;2085247;28;4032;-71
2021/04/25 03:42:13;;;;;;;;;;;;;;;20.31;45.11;101860.09;2081284;28;5507;-70
2021/04/25 03:43:14;;;;;;;;;;;;;;;20.31;45.07;101855.22;2084494;28;3989;-71
2021/04/25 03:44:15;;;;;;;;;;;;;;;20.30;44.98;101856.41;2085590;28;3844;-71
2021/04/25 03:45:15;;;;;;;;;;;;;;;20.30;44.95;101856.41;2085543;28;3813;-70
2021/04/25 03:46:16;;;;;;;;;;;;;;;20.31;45.01;101855.22;2085851;28;3959;-70
2021/04/25 03:47:17;;;;;;;;;;;;;;;20.30;44.93;101850.72;2084186;28;3868;-70
2021/04/25 03:48:18;;;;;;;;;;;;;;;20.31;45.11;101851.56;2085661;28;3850;-72
2021/04/25 03:49:21;;;;;;;;;;;;;;;20.30;45.03;101847.03;2085437;28;4138;-71
2021/04/25 03:50:22;;;;;;;;;;;;;;;20.30;45.07;101858.41;2085610;28;3868;-71
2021/04/25 03:51:23;;;;;;;;;;;;;;;20.31;44.96;101860.09;2085737;28;4760;-70
2021/04/25 03:52:24;;;;;;;;;;;;;;;20.29;44.92;101863.25;2084822;28;3950;-70
2021/04/25 03:53:24;;;;;;;;;;;;;;;20.30;45.00;101853.56;2085544;28;4020;-70
2021/04/25 03:54:25;;;;;;;;;;;;;;;20.30;45.03;101847.88;2085884;28;4130;-70
2021/04/25 03:55:29;;;;;;;;;;;;;;;20.31;45.17;101857.25;2085733;28;3977;-70
2021/04/25 03:56:30;;;;;;;;;;;;;;;20.29;45.00;101854.75;2085129;28;4003;-69
2021/04/25 03:57:31;;;;;;;;;;;;;;;20.30;45.15;101856.41;2084452;28;3792;-70
2021/04/25 03:58:31;;;;;;;;;;;;;;;20.31;45.00;101860.09;2085466;28;3758;-69
2021/04/25 03:59:32;;;;;;;;;;;;;;;20.30;45.14;101856.41;2085569;28;3900;-69
2021/04/25 04:00:33;;;;;;;;;;;;;;;20.30;45.01;101862.09;2084124;28;3782;-69
2021/04/25 04:01:34;;;;;;;;;;;;;;;20.29;45.00;101854.75;2085490;28;3964;-70
2021/04/25 04:02:35;;;;;;;;;;;;;;;20.29;45.13;101857.59;2085624;28;3995;-70
2021/04/25 04:03:35;;;;;;;;;;;;;;;20.30;45.04;101859.25;2085328;28;3760;-70
2021/04/25 04:04:36;;;;;;;;;;;;;;;20.30;45.26;101859.25;2084996;28;3933;-70
2021/04/25 04:05:37;;;;;;;;;;;;;;;20.30;45.14;101862.09;2085590;28;3973;-69
2021/04/25 04:06:38;;;;;;;;;;;;;;;20.31;45.22;101860.09;2085109;28;3963;-69
2021/04/25 04:07:38;;;;;;;;;;;;;;;20.30;45.40;101864.94;2085270;28;4755;-69
2021/04/25 04:08:39;;;;;;;;;;;;;;;20.30;45.40;101859.25;2085888;28;5170;-72
2021/04/25 04:09:40;;;;;;;;;;;;;;;20.30;45.32;101862.09;2085366;28;4001;-68
2021/04/25 04:10:40;;;;;;;;;;;;;;;20.30;45.40;101864.94;2077104;28;4031;-68
2021/04/25 04:11:41;;;;;;;;;;;;;;;20.31;45.42;101874.28;2085275;28;4094;-68
2021/04/25 04:12:42;;;;;;;;;;;;;;;20.31;45.41;101866.59;2084884;28;3983;-68
2021/04/25 04:13:43;;;;;;;;;;;;;;;20.31;45.42;101869.44;2084768;28;4001;-67
2021/04/25 04:14:44;;;;;;;;;;;;;;;20.31;45.43;101868.63;2085089;28;3953;-68
2021/04/25 04:15:44;;;;;;;;;;;;;;;20.31;45.57;101869.44;2085315;28;4167;-69
2021/04/25 04:16:45;;;;;;;;;;;;;;;20.32;45.40;101873.13;2085193;28;3915;-68
2021/04/25 04:17:46;;;;;;;;;;;;;;;20.31;45.54;101877.13;2084611;28;4004;-68
2021/04/25 04:18:47;;;;;;;;;;;;;;;20.31;45.54;101874.28;2085060;28;4010;-68
2021/04/25 04:19:47;;;;;;;;;;;;;;;20.32;45.64;101875.97;2084841;28;4025;-68
2021/04/25 04:20:48;;;;;;;;;;;;;;;20.31;45.70;101869.44;2085575;28;4121;-69
2021/04/25 04:21:49;;;;;;;;;;;;;;;20.32;45.54;101875.97;2076733;28;4024;-68
2021/04/25 04:22:49;;;;;;;;;;;;;;;20.31;45.64;101872.28;2076373;28;3746;-69
2021/04/25 04:23:50;;;;;;;;;;;;;;;20.31;45.72;101872.28;2085323;28;3995;-69
2021/04/25 04:24:52;;;;;;;;;;;;;;;20.31;45.65;101872.28;2085225;28;4033;-69
2021/04/25 04:25:52;;;;;;;;;;;;;;;20.32;45.70;101875.97;2084842;28;3874;-69
2021/04/25 04:26:53;;;;;;;;;;;;;;;20.33;45.74;101880.50;2084541;28;4093;-69
2021/04/25 04:27:54;;;;;;;;;;;;;;;20.32;45.82;101882.50;2085521;28;3893;-69
2021/04/25 04:28:55;;;;;;;;;;;;;;;20.32;45.78;101878.81;2084502;28;4966;-69
2021/04/25 04:29:55;;;;;;;;;;;;;;;20.32;45.76;101881.66;2083798;28;3996;-69
2021/04/25 04:30:56;;;;;;;;;;;;;;;20.31;45.77;101877.97;2085562;28;4133;-68
2021/04/25 04:31:57;;;;;;;;;;;;;;;20.32;45.86;101878.81;2085281;28;3841;-69
2021/04/25 04:32:58;;;;;;;;;;;;;;;20.31;45.80;101877.97;2084970;28;4007;-69
2021/04/25 04:33:59;;;;;;;;;;;;;;;20.32;45.93;101878.81;2084376;28;3902;-69
2021/04/25 04:35:00;;;;;;;;;;;;;;;20.32;46.10;101875.97;2085139;28;3852;-69
2021/04/25 04:36:01;;;;;;;;;;;;;;;20.32;46.14;101882.50;2085438;28;3949;-69
2021/04/25 04:37:02;;;;;;;;;;;;;;;20.33;46.24;101878.50;2083991;28;4025;-69
2021/04/25 04:38:03;;;;;;;;;;;;;;;20.33;46.31;101884.19;2084493;28;4110;-70
2021/04/25 04:39:03;;;;;;;;;;;;;;;20.34;46.37;101882.16;2085080;28;3814;-71
2021/04/25 04:40:04;;;;;;;;;;;;;;;20.33;46.47;101878.50;2085244;28;4057;-71
2021/04/25 04:41:05;;;;;;;;;;;;;;;20.34;46.40;101876.47;2084150;28;3856;-72
2021/04/25 04:42:06;;;;;;;;;;;;;;;20.34;46.63;101874.47;2083739;28;3867;-71
2021/04/25 04:43:06;;;;;;;;;;;;;;;20.35;46.84;101875.34;2085553;28;4005;-71
2021/04/25 04:44:07;;;;;;;;;;;;;;;20.36;46.91;101880.69;2085274;28;3861;-71
2021/04/25 04:45:08;;;;;;;;;;;;;;;20.35;46.91;101879.03;2085495;28;4074;-70
2021/04/25 04:46:09;;;;;;;;;;;;;;;20.36;46.86;101883.53;2084885;28;3806;-70
2021/04/25 04:47:09;;;;;;;;;;;;;;;20.35;46.77;101881.03;2085420;28;3902;-71
2021/04/25 04:48:10;;;;;;;;;;;;;;;20.34;46.63;101870.81;2084415;28;4100;-71
2021/04/25 04:49:11;;;;;;;;;;;;;;;20.34;46.52;101880.16;2084411;28;4057;-71
2021/04/25 04:50:12;;;;;;;;;;;;;;;20.33;46.57;101886.19;2084567;28;3902;-69
2021/04/25 04:51:13;;;;;;;;;;;;;;;20.33;46.59;101884.19;2083657;28;3860;-71
2021/04/25 04:52:14;;;;;;;;;;;;;;;20.33;46.48;101878.50;2085479;28;3809;-70
2021/04/25 04:53:14;;;;;;;;;;;;;;;20.33;46.44;101881.34;2085397;28;4010;-70
2021/04/25 04:54:15;;;;;;;;;;;;;;;20.32;46.31;101882.50;2083665;28;3884;-70
2021/04/25 04:55:16;;;;;;;;;;;;;;;20.32;46.34;101879.66;2084559;28;3999;-70
2021/04/25 04:56:16;;;;;;;;;;;;;;;20.32;46.29;101871.16;2084000;28;3838;-70
2021/04/25 04:57:17;;;;;;;;;;;;;;;20.33;46.42;101881.34;2085342;28;3860;-70
2021/04/25 04:58:18;;;;;;;;;;;;;;;20.31;46.20;101877.13;2085064;28;3929;-69
2021/04/25 04:59:19;;;;;;;;;;;;;;;20.31;46.26;101877.13;2085227;28;3899;-69
2021/04/25 05:00:19;;;;;;;;;;;;;;;20.31;46.17;101883.66;2083965;28;3840;-70
2021/04/25 05:01:20;;;;;;;;;;;;;;;20.32;46.15;101890.16;2084425;28;4009;-70
2021/04/25 05:02:21;;;;;;;;;;;;;;;20.30;46.11;101876.31;2085048;28;3974;-69
2021/04/25 05:03:22;;;;;;;;;;;;;;;20.31;46.27;101877.97;2085147;28;3967;-70
2021/04/25 05:04:23;;;;;;;;;;;;;;;20.31;46.19;101877.97;2084591;28;3852;-69
2021/04/25 05:05:23;;;;;;;;;;;;;;;20.32;46.11;101884.50;2084744;28;4058;-69
2021/04/25 05:06:24;;;;;;;;;;;;;;;20.31;46.28;101872.28;2085299;28;3812;-69
2021/04/25 05:07:25;;;;;;;;;;;;;;;20.31;46.27;101879.97;2084633;28;4059;-70
2021/04/25 05:08:26;;;;;;;;;;;;;;;20.31;46.14;101883.66;2084846;28;3836;-70
2021/04/25 05:09:27;;;;;;;;;;;;;;;20.32;46.22;101882.50;2085214;28;3998;-69
2021/04/25 05:10:28;;;;;;;;;;;;;;;20.31;46.16;101883.66;2084757;28;4045;-69
2021/04/25 05:11:29;;;;;;;;;;;;;;;20.31;46.05;101883.66;2084175;28;3844;-69
2021/04/25 05:12:30;;;;;;;;;;;;;;;20.31;46.04;101885.66;2084043;28;4271;-69
2021/04/25 05:13:31;;;;;;;;;;;;;;;20.31;46.11;101883.66;2085174;28;3804;-69
2021/04/25 05:14:31;;;;;;;;;;;;;;;20.31;46.15;101877.97;2084890;28;4045;-69
2021/04/25 05:15:32;;;;;;;;;;;;;;;20.31;46.06;101883.66;2084695;28;4112;-71
2021/04/25 05:16:36;;;;;;;;;;;;;;;20.31;46.04;101877.97;2086110;28;3940;-71